sensor_id;sensor_type;location;lat;lon;timestamp;P1;durP1;ratioP1;P2;durP2;ratioP2
13793;SDS011;31160;49.500;7.772;2023-05-07T00:01:27;2.17;;;1.40;;
13793;SDS011;31160;49.500;7.772;2023-05-07T00:03:54;2.70;;;1.40;;
13793;SDS011;31160;49.500;7.772;2023-05-07T00:06:21;4.97;;;1.50;;
13793;SDS011;31160;49.500;7.772;2023-05-07T00:08:48;2.93;;;1.67;;
13793;SDS011;31160;49.500;7.772;2023-05-07T00:11:15;2.00;;;1.20;;
13793;SDS011;31160;49.500;7.772;2023-05-07T00:13:42;3.83;;;1.60;;
13793;SDS011;31160;49.500;7.772;2023-05-07T00:16:09;4.77;;;2.33;;
13793;SDS011;31160;49.500;7.772;2023-05-07T00:18:35;3.30;;;1.57;;
13793;SDS011;31160;49.500;7.772;2023-05-07T00:21:02;3.50;;;1.70;;
13793;SDS011;31160;49.500;7.772;2023-05-07T00:23:29;1.77;;;1.37;;
13793;SDS011;31160;49.500;7.772;2023-05-07T00:25:56;2.47;;;1.43;;
13793;SDS011;31160;49.500;7.772;2023-05-07T00:28:23;2.27;;;1.53;;
13793;SDS011;31160;49.500;7.772;2023-05-07T00:30:49;3.70;;;1.20;;
13793;SDS011;31160;49.500;7.772;2023-05-07T00:33:16;4.30;;;1.73;;
13793;SDS011;31160;49.500;7.772;2023-05-07T00:35:43;2.93;;;1.53;;
13793;SDS011;31160;49.500;7.772;2023-05-07T00:38:10;3.40;;;1.57;;
13793;SDS011;31160;49.500;7.772;2023-05-07T00:40:36;2.67;;;1.60;;
13793;SDS011;31160;49.500;7.772;2023-05-07T00:43:03;2.40;;;1.50;;
13793;SDS011;31160;49.500;7.772;2023-05-07T00:45:30;4.70;;;1.40;;
13793;SDS011;31160;49.500;7.772;2023-05-07T00:47:57;2.30;;;1.53;;
13793;SDS011;31160;49.500;7.772;2023-05-07T00:50:27;2.53;;;1.40;;
13793;SDS011;31160;49.500;7.772;2023-05-07T00:52:54;2.43;;;1.60;;
13793;SDS011;31160;49.500;7.772;2023-05-07T00:55:22;2.33;;;1.50;;
13793;SDS011;31160;49.500;7.772;2023-05-07T00:57:50;2.63;;;1.80;;
13793;SDS011;31160;49.500;7.772;2023-05-07T01:00:17;2.93;;;1.90;;
13793;SDS011;31160;49.500;7.772;2023-05-07T01:02:44;3.83;;;1.50;;
13793;SDS011;31160;49.500;7.772;2023-05-07T01:05:14;1.70;;;1.37;;
13793;SDS011;31160;49.500;7.772;2023-05-07T01:07:43;2.60;;;1.23;;
13793;SDS011;31160;49.500;7.772;2023-05-07T01:10:10;3.07;;;1.50;;
13793;SDS011;31160;49.500;7.772;2023-05-07T01:12:38;1.73;;;1.33;;
13793;SDS011;31160;49.500;7.772;2023-05-07T01:15:07;3.60;;;1.70;;
13793;SDS011;31160;49.500;7.772;2023-05-07T01:17:35;3.07;;;1.37;;
13793;SDS011;31160;49.500;7.772;2023-05-07T01:20:04;3.07;;;1.70;;
13793;SDS011;31160;49.500;7.772;2023-05-07T01:22:34;2.87;;;1.67;;
13793;SDS011;31160;49.500;7.772;2023-05-07T01:25:03;5.37;;;1.60;;
13793;SDS011;31160;49.500;7.772;2023-05-07T01:27:31;3.67;;;1.80;;
13793;SDS011;31160;49.500;7.772;2023-05-07T01:30:00;1.97;;;1.77;;
13793;SDS011;31160;49.500;7.772;2023-05-07T01:35:18;2.60;;;1.50;;
13793;SDS011;31160;49.500;7.772;2023-05-07T01:37:47;3.90;;;1.97;;
13793;SDS011;31160;49.500;7.772;2023-05-07T01:40:14;6.03;;;1.73;;
13793;SDS011;31160;49.500;7.772;2023-05-07T01:42:42;2.27;;;1.83;;
13793;SDS011;31160;49.500;7.772;2023-05-07T01:45:09;2.37;;;1.67;;
13793;SDS011;31160;49.500;7.772;2023-05-07T01:47:37;1.83;;;1.60;;
13793;SDS011;31160;49.500;7.772;2023-05-07T01:50:08;2.27;;;1.57;;
13793;SDS011;31160;49.500;7.772;2023-05-07T01:52:37;5.07;;;1.90;;
13793;SDS011;31160;49.500;7.772;2023-05-07T01:55:05;2.67;;;1.70;;
13793;SDS011;31160;49.500;7.772;2023-05-07T01:57:32;4.33;;;1.70;;
13793;SDS011;31160;49.500;7.772;2023-05-07T01:59:59;2.43;;;1.30;;
13793;SDS011;31160;49.500;7.772;2023-05-07T02:02:26;1.90;;;1.50;;
13793;SDS011;31160;49.500;7.772;2023-05-07T02:04:56;3.57;;;1.70;;
13793;SDS011;31160;49.500;7.772;2023-05-07T02:07:23;3.70;;;1.60;;
13793;SDS011;31160;49.500;7.772;2023-05-07T02:09:51;2.17;;;1.50;;
13793;SDS011;31160;49.500;7.772;2023-05-07T02:12:18;2.50;;;1.60;;
13793;SDS011;31160;49.500;7.772;2023-05-07T02:14:45;1.73;;;1.20;;
13793;SDS011;31160;49.500;7.772;2023-05-07T02:17:12;2.00;;;1.57;;
13793;SDS011;31160;49.500;7.772;2023-05-07T02:19:39;2.07;;;1.50;;
13793;SDS011;31160;49.500;7.772;2023-05-07T02:22:06;2.93;;;1.57;;
13793;SDS011;31160;49.500;7.772;2023-05-07T02:24:33;2.03;;;1.50;;
13793;SDS011;31160;49.500;7.772;2023-05-07T02:27:01;2.97;;;1.77;;
13793;SDS011;31160;49.500;7.772;2023-05-07T02:29:29;2.37;;;1.60;;
13793;SDS011;31160;49.500;7.772;2023-05-07T02:31:56;5.03;;;1.77;;
13793;SDS011;31160;49.500;7.772;2023-05-07T02:34:22;2.33;;;1.43;;
13793;SDS011;31160;49.500;7.772;2023-05-07T02:36:49;2.50;;;1.50;;
13793;SDS011;31160;49.500;7.772;2023-05-07T02:39:20;4.43;;;1.70;;
13793;SDS011;31160;49.500;7.772;2023-05-07T02:41:46;3.00;;;1.60;;
13793;SDS011;31160;49.500;7.772;2023-05-07T02:44:13;3.57;;;1.60;;
13793;SDS011;31160;49.500;7.772;2023-05-07T02:46:40;3.80;;;1.70;;
13793;SDS011;31160;49.500;7.772;2023-05-07T02:49:10;3.07;;;1.80;;
13793;SDS011;31160;49.500;7.772;2023-05-07T02:51:37;4.67;;;1.80;;
13793;SDS011;31160;49.500;7.772;2023-05-07T02:54:09;3.17;;;1.40;;
13793;SDS011;31160;49.500;7.772;2023-05-07T02:56:36;2.83;;;1.50;;
13793;SDS011;31160;49.500;7.772;2023-05-07T02:59:03;2.53;;;1.30;;
13793;SDS011;31160;49.500;7.772;2023-05-07T03:01:32;3.17;;;1.20;;
13793;SDS011;31160;49.500;7.772;2023-05-07T03:04:05;1.73;;;1.10;;
13793;SDS011;31160;49.500;7.772;2023-05-07T03:06:31;2.70;;;1.60;;
13793;SDS011;31160;49.500;7.772;2023-05-07T03:08:58;1.77;;;1.30;;
13793;SDS011;31160;49.500;7.772;2023-05-07T03:11:25;2.97;;;1.40;;
13793;SDS011;31160;49.500;7.772;2023-05-07T03:13:52;2.07;;;1.50;;
13793;SDS011;31160;49.500;7.772;2023-05-07T03:16:20;2.33;;;1.37;;
13793;SDS011;31160;49.500;7.772;2023-05-07T03:18:47;4.80;;;1.47;;
13793;SDS011;31160;49.500;7.772;2023-05-07T03:21:13;2.80;;;1.77;;
13793;SDS011;31160;49.500;7.772;2023-05-07T03:23:40;3.90;;;1.70;;
13793;SDS011;31160;49.500;7.772;2023-05-07T03:26:07;4.70;;;1.90;;
13793;SDS011;31160;49.500;7.772;2023-05-07T03:28:34;3.83;;;1.70;;
13793;SDS011;31160;49.500;7.772;2023-05-07T03:31:04;1.93;;;1.40;;
13793;SDS011;31160;49.500;7.772;2023-05-07T03:33:35;2.20;;;1.70;;
13793;SDS011;31160;49.500;7.772;2023-05-07T03:36:05;2.00;;;1.53;;
13793;SDS011;31160;49.500;7.772;2023-05-07T03:38:31;3.53;;;1.23;;
13793;SDS011;31160;49.500;7.772;2023-05-07T03:40:58;2.37;;;1.47;;
13793;SDS011;31160;49.500;7.772;2023-05-07T03:43:25;4.20;;;1.40;;
13793;SDS011;31160;49.500;7.772;2023-05-07T03:46:00;1.97;;;1.77;;
13793;SDS011;31160;49.500;7.772;2023-05-07T03:48:27;3.03;;;1.57;;
13793;SDS011;31160;49.500;7.772;2023-05-07T03:50:59;1.87;;;1.50;;
13793;SDS011;31160;49.500;7.772;2023-05-07T03:53:30;3.80;;;1.60;;
13793;SDS011;31160;49.500;7.772;2023-05-07T03:55:57;3.40;;;1.57;;
13793;SDS011;31160;49.500;7.772;2023-05-07T03:58:24;1.87;;;1.70;;
13793;SDS011;31160;49.500;7.772;2023-05-07T04:00:53;4.00;;;1.70;;
13793;SDS011;31160;49.500;7.772;2023-05-07T04:03:26;1.60;;;1.50;;
13793;SDS011;31160;49.500;7.772;2023-05-07T04:05:56;1.70;;;1.33;;
13793;SDS011;31160;49.500;7.772;2023-05-07T04:08:23;2.20;;;1.73;;
13793;SDS011;31160;49.500;7.772;2023-05-07T04:10:56;3.77;;;1.67;;
13793;SDS011;31160;49.500;7.772;2023-05-07T04:13:25;1.87;;;1.40;;
13793;SDS011;31160;49.500;7.772;2023-05-07T04:15:52;3.67;;;1.50;;
13793;SDS011;31160;49.500;7.772;2023-05-07T04:18:21;2.53;;;1.53;;
13793;SDS011;31160;49.500;7.772;2023-05-07T04:20:48;2.20;;;1.40;;
13793;SDS011;31160;49.500;7.772;2023-05-07T04:23:16;2.57;;;1.40;;
13793;SDS011;31160;49.500;7.772;2023-05-07T04:25:43;2.80;;;1.70;;
13793;SDS011;31160;49.500;7.772;2023-05-07T04:28:18;2.90;;;1.80;;
13793;SDS011;31160;49.500;7.772;2023-05-07T04:30:45;1.93;;;1.60;;
13793;SDS011;31160;49.500;7.772;2023-05-07T04:33:13;2.33;;;1.70;;
13793;SDS011;31160;49.500;7.772;2023-05-07T04:35:43;1.60;;;1.43;;
13793;SDS011;31160;49.500;7.772;2023-05-07T04:38:10;1.50;;;1.40;;
13793;SDS011;31160;49.500;7.772;2023-05-07T04:40:37;2.40;;;1.37;;
13793;SDS011;31160;49.500;7.772;2023-05-07T04:43:06;3.73;;;1.50;;
13793;SDS011;31160;49.500;7.772;2023-05-07T04:45:42;1.50;;;1.13;;
13793;SDS011;31160;49.500;7.772;2023-05-07T04:48:09;2.83;;;1.70;;
13793;SDS011;31160;49.500;7.772;2023-05-07T04:50:39;2.20;;;1.33;;
13793;SDS011;31160;49.500;7.772;2023-05-07T04:53:06;2.10;;;1.30;;
13793;SDS011;31160;49.500;7.772;2023-05-07T04:55:33;3.73;;;1.67;;
13793;SDS011;31160;49.500;7.772;2023-05-07T04:58:00;3.63;;;1.57;;
13793;SDS011;31160;49.500;7.772;2023-05-07T05:00:31;2.33;;;1.80;;
13793;SDS011;31160;49.500;7.772;2023-05-07T05:02:58;1.70;;;1.50;;
13793;SDS011;31160;49.500;7.772;2023-05-07T05:05:26;1.90;;;1.47;;
13793;SDS011;31160;49.500;7.772;2023-05-07T05:07:53;2.07;;;1.60;;
13793;SDS011;31160;49.500;7.772;2023-05-07T05:10:21;3.27;;;1.27;;
13793;SDS011;31160;49.500;7.772;2023-05-07T05:12:50;2.30;;;1.80;;
13793;SDS011;31160;49.500;7.772;2023-05-07T05:15:18;2.37;;;2.03;;
13793;SDS011;31160;49.500;7.772;2023-05-07T05:17:45;5.30;;;1.63;;
13793;SDS011;31160;49.500;7.772;2023-05-07T05:20:12;4.07;;;1.63;;
13793;SDS011;31160;49.500;7.772;2023-05-07T05:22:40;3.20;;;2.10;;
13793;SDS011;31160;49.500;7.772;2023-05-07T05:25:09;2.50;;;1.80;;
13793;SDS011;31160;49.500;7.772;2023-05-07T05:27:36;3.50;;;1.60;;
13793;SDS011;31160;49.500;7.772;2023-05-07T05:30:04;3.37;;;1.50;;
13793;SDS011;31160;49.500;7.772;2023-05-07T05:32:32;2.13;;;1.53;;
13793;SDS011;31160;49.500;7.772;2023-05-07T05:35:00;5.23;;;2.10;;
13793;SDS011;31160;49.500;7.772;2023-05-07T05:37:28;2.43;;;2.00;;
13793;SDS011;31160;49.500;7.772;2023-05-07T05:39:57;4.60;;;2.00;;
13793;SDS011;31160;49.500;7.772;2023-05-07T05:42:25;4.23;;;1.90;;
13793;SDS011;31160;49.500;7.772;2023-05-07T05:44:53;2.53;;;1.50;;
13793;SDS011;31160;49.500;7.772;2023-05-07T05:47:21;4.27;;;1.70;;
13793;SDS011;31160;49.500;7.772;2023-05-07T05:49:50;4.40;;;1.60;;
13793;SDS011;31160;49.500;7.772;2023-05-07T05:52:16;3.77;;;1.30;;
13793;SDS011;31160;49.500;7.772;2023-05-07T05:54:44;2.23;;;1.30;;
13793;SDS011;31160;49.500;7.772;2023-05-07T05:57:11;2.33;;;1.47;;
13793;SDS011;31160;49.500;7.772;2023-05-07T05:59:38;1.57;;;1.10;;
13793;SDS011;31160;49.500;7.772;2023-05-07T06:02:05;2.43;;;1.30;;
13793;SDS011;31160;49.500;7.772;2023-05-07T06:04:33;3.00;;;1.70;;
13793;SDS011;31160;49.500;7.772;2023-05-07T06:06:59;3.40;;;1.80;;
13793;SDS011;31160;49.500;7.772;2023-05-07T06:09:26;4.10;;;1.60;;
13793;SDS011;31160;49.500;7.772;2023-05-07T06:11:53;5.07;;;1.63;;
13793;SDS011;31160;49.500;7.772;2023-05-07T06:14:20;2.27;;;1.53;;
13793;SDS011;31160;49.500;7.772;2023-05-07T06:16:47;2.43;;;1.37;;
13793;SDS011;31160;49.500;7.772;2023-05-07T06:19:14;1.70;;;1.60;;
13793;SDS011;31160;49.500;7.772;2023-05-07T06:21:44;2.47;;;1.67;;
13793;SDS011;31160;49.500;7.772;2023-05-07T06:24:11;3.90;;;1.97;;
13793;SDS011;31160;49.500;7.772;2023-05-07T06:26:38;1.90;;;1.50;;
13793;SDS011;31160;49.500;7.772;2023-05-07T06:29:05;4.47;;;2.07;;
13793;SDS011;31160;49.500;7.772;2023-05-07T06:31:32;4.53;;;1.57;;
13793;SDS011;31160;49.500;7.772;2023-05-07T06:34:06;3.53;;;1.67;;
13793;SDS011;31160;49.500;7.772;2023-05-07T06:36:36;4.33;;;1.70;;
13793;SDS011;31160;49.500;7.772;2023-05-07T06:39:12;2.23;;;1.30;;
13793;SDS011;31160;49.500;7.772;2023-05-07T06:41:39;1.87;;;1.53;;
13793;SDS011;31160;49.500;7.772;2023-05-07T06:44:14;2.57;;;1.57;;
13793;SDS011;31160;49.500;7.772;2023-05-07T06:46:45;3.00;;;1.63;;
13793;SDS011;31160;49.500;7.772;2023-05-07T06:49:13;2.63;;;1.30;;
13793;SDS011;31160;49.500;7.772;2023-05-07T06:51:40;2.50;;;1.40;;
13793;SDS011;31160;49.500;7.772;2023-05-07T06:54:07;1.77;;;1.10;;
13793;SDS011;31160;49.500;7.772;2023-05-07T06:56:36;3.10;;;1.20;;
13793;SDS011;31160;49.500;7.772;2023-05-07T06:59:04;2.33;;;1.47;;
13793;SDS011;31160;49.500;7.772;2023-05-07T07:01:36;5.10;;;1.77;;
13793;SDS011;31160;49.500;7.772;2023-05-07T07:04:04;6.87;;;1.40;;
13793;SDS011;31160;49.500;7.772;2023-05-07T07:06:32;2.53;;;1.60;;
13793;SDS011;31160;49.500;7.772;2023-05-07T07:09:00;4.40;;;1.60;;
13793;SDS011;31160;49.500;7.772;2023-05-07T07:11:29;1.80;;;1.40;;
13793;SDS011;31160;49.500;7.772;2023-05-07T07:13:56;3.40;;;1.57;;
13793;SDS011;31160;49.500;7.772;2023-05-07T07:16:24;2.77;;;1.57;;
13793;SDS011;31160;49.500;7.772;2023-05-07T07:18:51;3.73;;;1.37;;
13793;SDS011;31160;49.500;7.772;2023-05-07T07:21:18;3.93;;;1.60;;
13793;SDS011;31160;49.500;7.772;2023-05-07T07:23:46;2.00;;;1.40;;
13793;SDS011;31160;49.500;7.772;2023-05-07T07:26:13;2.13;;;1.60;;
13793;SDS011;31160;49.500;7.772;2023-05-07T07:28:43;4.63;;;1.73;;
13793;SDS011;31160;49.500;7.772;2023-05-07T07:31:17;3.70;;;1.57;;
13793;SDS011;31160;49.500;7.772;2023-05-07T07:33:44;1.90;;;1.40;;
13793;SDS011;31160;49.500;7.772;2023-05-07T07:36:11;3.23;;;1.33;;
13793;SDS011;31160;49.500;7.772;2023-05-07T07:38:37;2.93;;;1.20;;
13793;SDS011;31160;49.500;7.772;2023-05-07T07:41:07;2.00;;;1.40;;
13793;SDS011;31160;49.500;7.772;2023-05-07T07:43:35;2.63;;;1.03;;
13793;SDS011;31160;49.500;7.772;2023-05-07T07:46:02;2.77;;;1.27;;
13793;SDS011;31160;49.500;7.772;2023-05-07T07:48:30;2.53;;;1.37;;
13793;SDS011;31160;49.500;7.772;2023-05-07T07:50:58;2.00;;;1.20;;
13793;SDS011;31160;49.500;7.772;2023-05-07T07:53:24;4.90;;;1.20;;
13793;SDS011;31160;49.500;7.772;2023-05-07T07:55:52;1.53;;;1.20;;
13793;SDS011;31160;49.500;7.772;2023-05-07T07:58:26;5.27;;;1.67;;
13793;SDS011;31160;49.500;7.772;2023-05-07T08:00:53;3.27;;;1.63;;
13793;SDS011;31160;49.500;7.772;2023-05-07T08:03:22;3.77;;;1.10;;
13793;SDS011;31160;49.500;7.772;2023-05-07T08:05:55;3.37;;;1.40;;
13793;SDS011;31160;49.500;7.772;2023-05-07T08:08:22;2.37;;;1.13;;
13793;SDS011;31160;49.500;7.772;2023-05-07T08:10:50;2.30;;;1.40;;
13793;SDS011;31160;49.500;7.772;2023-05-07T08:13:24;3.33;;;1.27;;
13793;SDS011;31160;49.500;7.772;2023-05-07T08:15:51;3.87;;;1.17;;
13793;SDS011;31160;49.500;7.772;2023-05-07T08:18:19;3.47;;;1.17;;
13793;SDS011;31160;49.500;7.772;2023-05-07T08:20:46;2.97;;;1.17;;
13793;SDS011;31160;49.500;7.772;2023-05-07T08:23:17;1.40;;;1.20;;
13793;SDS011;31160;49.500;7.772;2023-05-07T08:25:44;5.17;;;1.37;;
13793;SDS011;31160;49.500;7.772;2023-05-07T08:28:12;1.63;;;1.47;;
13793;SDS011;31160;49.500;7.772;2023-05-07T08:30:40;3.17;;;1.20;;
13793;SDS011;31160;49.500;7.772;2023-05-07T08:33:08;3.73;;;1.40;;
13793;SDS011;31160;49.500;7.772;2023-05-07T08:35:35;4.03;;;1.40;;
13793;SDS011;31160;49.500;7.772;2023-05-07T08:38:04;3.07;;;1.27;;
13793;SDS011;31160;49.500;7.772;2023-05-07T08:40:32;2.60;;;1.40;;
13793;SDS011;31160;49.500;7.772;2023-05-07T08:43:08;2.07;;;1.17;;
13793;SDS011;31160;49.500;7.772;2023-05-07T08:45:42;3.40;;;1.60;;
13793;SDS011;31160;49.500;7.772;2023-05-07T08:48:16;2.13;;;1.40;;
13793;SDS011;31160;49.500;7.772;2023-05-07T08:50:50;4.00;;;1.30;;
13793;SDS011;31160;49.500;7.772;2023-05-07T08:53:17;2.03;;;1.30;;
13793;SDS011;31160;49.500;7.772;2023-05-07T08:55:45;1.30;;;1.00;;
13793;SDS011;31160;49.500;7.772;2023-05-07T08:58:13;1.80;;;1.20;;
13793;SDS011;31160;49.500;7.772;2023-05-07T09:00:40;1.50;;;1.20;;
13793;SDS011;31160;49.500;7.772;2023-05-07T09:03:09;2.33;;;1.20;;
13793;SDS011;31160;49.500;7.772;2023-05-07T09:05:40;1.80;;;1.10;;
13793;SDS011;31160;49.500;7.772;2023-05-07T09:08:07;5.93;;;1.20;;
13793;SDS011;31160;49.500;7.772;2023-05-07T09:10:36;2.70;;;1.33;;
13793;SDS011;31160;49.500;7.772;2023-05-07T09:13:04;2.63;;;1.33;;
13793;SDS011;31160;49.500;7.772;2023-05-07T09:15:31;1.53;;;1.07;;
13793;SDS011;31160;49.500;7.772;2023-05-07T09:18:01;1.60;;;1.10;;
13793;SDS011;31160;49.500;7.772;2023-05-07T09:20:31;3.07;;;1.27;;
13793;SDS011;31160;49.500;7.772;2023-05-07T09:22:59;2.13;;;1.30;;
13793;SDS011;31160;49.500;7.772;2023-05-07T09:25:28;2.10;;;1.43;;
13793;SDS011;31160;49.500;7.772;2023-05-07T09:27:58;1.10;;;1.00;;
13793;SDS011;31160;49.500;7.772;2023-05-07T09:30:33;1.20;;;1.10;;
13793;SDS011;31160;49.500;7.772;2023-05-07T09:33:03;1.30;;;0.93;;
13793;SDS011;31160;49.500;7.772;2023-05-07T09:35:32;3.90;;;1.60;;
13793;SDS011;31160;49.500;7.772;2023-05-07T09:38:05;2.80;;;1.30;;
13793;SDS011;31160;49.500;7.772;2023-05-07T09:40:34;3.37;;;1.23;;
13793;SDS011;31160;49.500;7.772;2023-05-07T09:43:09;2.70;;;1.50;;
13793;SDS011;31160;49.500;7.772;2023-05-07T09:45:44;2.10;;;1.30;;
13793;SDS011;31160;49.500;7.772;2023-05-07T09:48:12;3.90;;;1.20;;
13793;SDS011;31160;49.500;7.772;2023-05-07T09:50:48;1.57;;;1.27;;
13793;SDS011;31160;49.500;7.772;2023-05-07T09:53:21;2.07;;;1.10;;
13793;SDS011;31160;49.500;7.772;2023-05-07T09:55:49;2.77;;;1.10;;
13793;SDS011;31160;49.500;7.772;2023-05-07T09:58:18;2.43;;;1.10;;
13793;SDS011;31160;49.500;7.772;2023-05-07T10:00:46;2.47;;;1.00;;
13793;SDS011;31160;49.500;7.772;2023-05-07T10:03:14;1.80;;;1.20;;
13793;SDS011;31160;49.500;7.772;2023-05-07T10:05:52;2.20;;;1.30;;
13793;SDS011;31160;49.500;7.772;2023-05-07T10:08:20;3.53;;;1.10;;
13793;SDS011;31160;49.500;7.772;2023-05-07T10:10:51;2.00;;;1.40;;
13793;SDS011;31160;49.500;7.772;2023-05-07T10:13:22;1.50;;;1.30;;
13793;SDS011;31160;49.500;7.772;2023-05-07T10:15:52;1.83;;;1.37;;
13793;SDS011;31160;49.500;7.772;2023-05-07T10:18:20;4.50;;;1.30;;
13793;SDS011;31160;49.500;7.772;2023-05-07T10:21:02;3.17;;;1.30;;
13793;SDS011;31160;49.500;7.772;2023-05-07T10:23:33;2.93;;;1.60;;
13793;SDS011;31160;49.500;7.772;2023-05-07T10:26:02;3.87;;;1.43;;
13793;SDS011;31160;49.500;7.772;2023-05-07T10:28:32;6.10;;;1.30;;
13793;SDS011;31160;49.500;7.772;2023-05-07T10:33:45;2.83;;;1.27;;
13793;SDS011;31160;49.500;7.772;2023-05-07T10:36:16;3.73;;;1.23;;
13793;SDS011;31160;49.500;7.772;2023-05-07T10:38:43;1.53;;;1.30;;
13793;SDS011;31160;49.500;7.772;2023-05-07T10:41:10;1.93;;;1.10;;
13793;SDS011;31160;49.500;7.772;2023-05-07T10:43:41;4.60;;;1.20;;
13793;SDS011;31160;49.500;7.772;2023-05-07T10:51:46;3.43;;;1.23;;
13793;SDS011;31160;49.500;7.772;2023-05-07T10:57:53;2.67;;;1.30;;
13793;SDS011;31160;49.500;7.772;2023-05-07T11:05:35;4.10;;;1.50;;
13793;SDS011;31160;49.500;7.772;2023-05-07T11:08:21;7.53;;;1.40;;
13793;SDS011;31160;49.500;7.772;2023-05-07T11:10:55;5.07;;;1.47;;
13793;SDS011;31160;49.500;7.772;2023-05-07T11:13:46;1.90;;;1.40;;
13793;SDS011;31160;49.500;7.772;2023-05-07T11:16:46;2.20;;;1.40;;
13793;SDS011;31160;49.500;7.772;2023-05-07T11:25:29;3.23;;;1.87;;
13793;SDS011;31160;49.500;7.772;2023-05-07T11:30:42;3.33;;;1.70;;
13793;SDS011;31160;49.500;7.772;2023-05-07T11:33:12;2.20;;;1.83;;
13793;SDS011;31160;49.500;7.772;2023-05-07T11:35:43;2.83;;;1.20;;
13793;SDS011;31160;49.500;7.772;2023-05-07T11:38:13;1.83;;;1.30;;
13793;SDS011;31160;49.500;7.772;2023-05-07T11:40:54;2.33;;;1.33;;
13793;SDS011;31160;49.500;7.772;2023-05-07T11:43:22;2.90;;;1.50;;
13793;SDS011;31160;49.500;7.772;2023-05-07T11:45:49;2.70;;;1.50;;
13793;SDS011;31160;49.500;7.772;2023-05-07T11:48:16;2.30;;;1.70;;
13793;SDS011;31160;49.500;7.772;2023-05-07T11:50:49;3.43;;;1.67;;
13793;SDS011;31160;49.500;7.772;2023-05-07T11:53:18;2.00;;;1.50;;
13793;SDS011;31160;49.500;7.772;2023-05-07T11:55:46;3.17;;;1.60;;
13793;SDS011;31160;49.500;7.772;2023-05-07T11:58:18;4.30;;;1.73;;
13793;SDS011;31160;49.500;7.772;2023-05-07T12:00:53;1.97;;;1.77;;
13793;SDS011;31160;49.500;7.772;2023-05-07T12:03:20;2.07;;;1.50;;
13793;SDS011;31160;49.500;7.772;2023-05-07T12:05:47;1.70;;;1.43;;
13793;SDS011;31160;49.500;7.772;2023-05-07T12:08:18;2.37;;;1.70;;
13793;SDS011;31160;49.500;7.772;2023-05-07T12:10:46;3.33;;;1.60;;
13793;SDS011;31160;49.500;7.772;2023-05-07T12:13:15;1.90;;;1.60;;
13793;SDS011;31160;49.500;7.772;2023-05-07T12:15:42;4.10;;;1.90;;
13793;SDS011;31160;49.500;7.772;2023-05-07T12:18:10;2.13;;;1.53;;
13793;SDS011;31160;49.500;7.772;2023-05-07T12:20:38;2.80;;;1.83;;
13793;SDS011;31160;49.500;7.772;2023-05-07T12:23:05;5.40;;;2.90;;
13793;SDS011;31160;49.500;7.772;2023-05-07T12:25:36;5.60;;;1.90;;
13793;SDS011;31160;49.500;7.772;2023-05-07T12:28:04;3.47;;;1.77;;
13793;SDS011;31160;49.500;7.772;2023-05-07T12:30:32;4.13;;;2.10;;
13793;SDS011;31160;49.500;7.772;2023-05-07T12:33:03;2.83;;;1.70;;
13793;SDS011;31160;49.500;7.772;2023-05-07T12:35:31;3.87;;;1.70;;
13793;SDS011;31160;49.500;7.772;2023-05-07T12:38:02;3.43;;;2.03;;
13793;SDS011;31160;49.500;7.772;2023-05-07T12:40:37;2.63;;;1.90;;
13793;SDS011;31160;49.500;7.772;2023-05-07T12:43:06;5.97;;;1.70;;
13793;SDS011;31160;49.500;7.772;2023-05-07T12:45:39;4.90;;;2.20;;
13793;SDS011;31160;49.500;7.772;2023-05-07T12:48:08;3.67;;;2.03;;
13793;SDS011;31160;49.500;7.772;2023-05-07T12:50:36;1.80;;;1.70;;
13793;SDS011;31160;49.500;7.772;2023-05-07T12:53:03;3.83;;;2.17;;
13793;SDS011;31160;49.500;7.772;2023-05-07T12:55:41;3.50;;;1.67;;
13793;SDS011;31160;49.500;7.772;2023-05-07T13:00:47;2.53;;;2.00;;
13793;SDS011;31160;49.500;7.772;2023-05-07T13:03:21;3.37;;;2.37;;
13793;SDS011;31160;49.500;7.772;2023-05-07T13:06:08;6.43;;;2.53;;
13793;SDS011;31160;49.500;7.772;2023-05-07T13:08:37;4.17;;;2.53;;
13793;SDS011;31160;49.500;7.772;2023-05-07T13:11:07;3.70;;;2.27;;
13793;SDS011;31160;49.500;7.772;2023-05-07T13:13:35;5.17;;;2.57;;
13793;SDS011;31160;49.500;7.772;2023-05-07T13:16:03;4.40;;;2.27;;
13793;SDS011;31160;49.500;7.772;2023-05-07T13:18:32;3.47;;;2.40;;
13793;SDS011;31160;49.500;7.772;2023-05-07T13:21:00;2.50;;;2.30;;
13793;SDS011;31160;49.500;7.772;2023-05-07T13:23:27;6.50;;;2.97;;
13793;SDS011;31160;49.500;7.772;2023-05-07T13:25:54;4.57;;;2.83;;
13793;SDS011;31160;49.500;7.772;2023-05-07T13:28:22;3.60;;;2.60;;
13793;SDS011;31160;49.500;7.772;2023-05-07T13:30:50;4.43;;;2.70;;
13793;SDS011;31160;49.500;7.772;2023-05-07T13:33:18;3.73;;;3.27;;
13793;SDS011;31160;49.500;7.772;2023-05-07T13:35:45;6.50;;;3.03;;
13793;SDS011;31160;49.500;7.772;2023-05-07T13:38:12;9.23;;;4.03;;
13793;SDS011;31160;49.500;7.772;2023-05-07T13:40:38;4.63;;;3.10;;
13793;SDS011;31160;49.500;7.772;2023-05-07T13:43:05;5.90;;;3.30;;
13793;SDS011;31160;49.500;7.772;2023-05-07T13:45:32;6.00;;;3.70;;
13793;SDS011;31160;49.500;7.772;2023-05-07T13:47:59;5.60;;;3.40;;
13793;SDS011;31160;49.500;7.772;2023-05-07T13:50:26;5.50;;;3.63;;
13793;SDS011;31160;49.500;7.772;2023-05-07T13:52:55;10.37;;;4.10;;
13793;SDS011;31160;49.500;7.772;2023-05-07T13:55:23;8.17;;;3.97;;
13793;SDS011;31160;49.500;7.772;2023-05-07T13:57:57;7.93;;;3.77;;
13793;SDS011;31160;49.500;7.772;2023-05-07T14:00:25;4.03;;;2.77;;
13793;SDS011;31160;49.500;7.772;2023-05-07T14:02:53;4.17;;;2.73;;
13793;SDS011;31160;49.500;7.772;2023-05-07T14:05:21;4.13;;;2.60;;
13793;SDS011;31160;49.500;7.772;2023-05-07T14:07:52;5.00;;;2.70;;
13793;SDS011;31160;49.500;7.772;2023-05-07T14:10:20;6.13;;;2.93;;
13793;SDS011;31160;49.500;7.772;2023-05-07T14:12:46;3.83;;;2.53;;
13793;SDS011;31160;49.500;7.772;2023-05-07T14:15:14;5.03;;;2.47;;
13793;SDS011;31160;49.500;7.772;2023-05-07T14:17:42;5.83;;;2.43;;
13793;SDS011;31160;49.500;7.772;2023-05-07T14:20:10;3.80;;;2.90;;
13793;SDS011;31160;49.500;7.772;2023-05-07T14:22:38;3.10;;;2.10;;
13793;SDS011;31160;49.500;7.772;2023-05-07T14:25:05;4.53;;;1.80;;
13793;SDS011;31160;49.500;7.772;2023-05-07T14:27:33;3.20;;;2.00;;
13793;SDS011;31160;49.500;7.772;2023-05-07T14:29:59;6.40;;;1.90;;
13793;SDS011;31160;49.500;7.772;2023-05-07T14:32:26;2.67;;;1.53;;
13793;SDS011;31160;49.500;7.772;2023-05-07T14:34:53;5.77;;;2.30;;
13793;SDS011;31160;49.500;7.772;2023-05-07T14:37:20;4.30;;;1.73;;
13793;SDS011;31160;49.500;7.772;2023-05-07T14:39:47;4.70;;;2.10;;
13793;SDS011;31160;49.500;7.772;2023-05-07T14:42:16;7.97;;;2.33;;
13793;SDS011;31160;49.500;7.772;2023-05-07T14:44:44;3.53;;;2.30;;
13793;SDS011;31160;49.500;7.772;2023-05-07T14:47:12;7.80;;;2.17;;
13793;SDS011;31160;49.500;7.772;2023-05-07T14:49:39;4.73;;;2.13;;
13793;SDS011;31160;49.500;7.772;2023-05-07T14:52:07;4.80;;;2.47;;
13793;SDS011;31160;49.500;7.772;2023-05-07T14:54:36;4.10;;;2.23;;
13793;SDS011;31160;49.500;7.772;2023-05-07T14:57:04;8.47;;;2.77;;
13793;SDS011;31160;49.500;7.772;2023-05-07T14:59:32;3.37;;;2.27;;
13793;SDS011;31160;49.500;7.772;2023-05-07T15:01:59;3.53;;;2.30;;
13793;SDS011;31160;49.500;7.772;2023-05-07T15:04:28;5.30;;;2.03;;
13793;SDS011;31160;49.500;7.772;2023-05-07T15:06:55;5.57;;;2.50;;
13793;SDS011;31160;49.500;7.772;2023-05-07T15:09:22;6.67;;;2.80;;
13793;SDS011;31160;49.500;7.772;2023-05-07T15:11:48;4.73;;;2.30;;
13793;SDS011;31160;49.500;7.772;2023-05-07T15:14:16;4.93;;;2.60;;
13793;SDS011;31160;49.500;7.772;2023-05-07T15:16:42;5.27;;;2.60;;
13793;SDS011;31160;49.500;7.772;2023-05-07T15:19:09;4.43;;;2.90;;
13793;SDS011;31160;49.500;7.772;2023-05-07T15:21:37;4.17;;;2.30;;
13793;SDS011;31160;49.500;7.772;2023-05-07T15:24:04;7.10;;;3.00;;
13793;SDS011;31160;49.500;7.772;2023-05-07T15:26:31;3.60;;;2.50;;
13793;SDS011;31160;49.500;7.772;2023-05-07T15:28:58;7.17;;;5.57;;